Fresno Yosemite International Airport Fresno US
ICAO: KFAT
IATA: FAT
Category: Medium
Scheduled Services: Yes

Elevation: 336 ft
TransAlt. 18000 ft.

Airport Communications:
APP/DEP:35.195
APP/DEP:118.5
ATIS:121.35
CLNC DEL:124.35
GND:121.7
ANG OPS:138.15
ARNG OPS:40.95
RANCHO RDO:122.2
TWR:118.2
UNICOM:122.95

KFAT Zoom In..

If you have problems with the map follow the link
https://www.worldairports.se/pages/airport.php?
ICAO=KFAT

Runways:

(A) RW 11L length 9539 ft width 150 ft
LOC 111.30 / hdg 111

(B) RW 11R length 8008 ft width 150 ft
LOC 111.30 / hdg 111

(C) RW 29L length 8008 ft width 150 ft
LOC 111.30 / hdg 291

(D) RW 29R length 9539 ft width 150 ft
ILS 111.30 / hdg 291

Location; KFAT
Day. 16 / Time. 02.53 Zulu
* Altimeter: 30.08
* Temperature: 15° c. 59°f.
* Wind from: 270° Speed 03 kn.
Dewpoint: 02° c.
Visibility: 5 Statute Miles.
Clouds: Scattered 2000 ft.
Conditions: Haze.Conditions: Smoke.

KFAT 160253Z 27003KT 5SM HZ FU SCT200 15/02 A3008


Wind From 270°
Speed 03 kn.

 
 
jpsmedia.com for Web Design worldairports.se 2018   terms of use